Terminal Aerodrome Forecast
Issued by NWS Huntsville, AL

Home | Current Version | Previous Version | Text Only | Print | Product List | Glossary On
Versions: 1 2 3 4 5 6 7 8 9 10 11 12 13 14 15
956
FTUS44 KHUN 221120
TAFMSL
TAF
KMSL 221120Z 2212/2312 01005KT P6SM FEW250
     FM221400 06010KT P6SM FEW250
     FM222100 05006KT P6SM FEW200=

USA.gov is the U.S. government's official web portal to all federal, state and local government web resources and services.